No Warnings, Watches, or Advisories

Active alerts


No alerts

Amazon Weather

Hours of Daylight

13 hrs 45 min 28 sec
of Daylight Today
57.3% Day 42.7% Night Which is
2 min 27 sec Longer
Than Yesterday

South Webcam more information South Webcam


South West Webcam more information South West Webcam


You find our weather info also at:

UK Metoffice

Weather Underground

Mid-Atlantic Weather Network

WeatherlinkIP

Citizen Weather Observer Program (CWOP)

HAMweather, WeatherForYou, PWS Weather



Nearby METAR Reports

   
KDUJ - Du Bois, Pennsylvania, USA
Distance from station: NNE 16 mi
Updated: Apr 25 2019 2:53 pm
Overcast  
Overcast  
   Wind: SE 5.8 mph
Wind: SE 5.8 mph
Temperature: 55.4°F
Dew Point: 46.4°F
Humidity: 72%
Barometer: 29.85 inHg
Clouds: Overcast
Visibility: 10 mi
Cloud details: Overcast 1700 ft
KDUJ 251853Z AUTO 14005KT 10SM OVC017 13/08 A2985 RMK AO2 SLP111 T01330078
KIDI - Indiana/Stewart, Pennsylvania, USA
Distance from station: SSW 23 mi
Updated: Apr 25 2019 3:55 pm
Overcast  
Overcast  
   Wind: Calm
Wind: Calm
Temperature: 62.6°F
Dew Point: 57.2°F
Humidity: 83%
Barometer: 29.88 inHg
Clouds: Overcast
Visibility: 10 mi
Cloud details: Mostly Cloudy 2100 ft,
Mostly Cloudy 5500 ft,
Overcast 8000 ft
KIDI 251955Z AUTO 00000KT 10SM BKN021 BKN055 OVC080 17/14 A2988 RMK A01
KFIG - Clearfield, Pennsylvania, USA
Distance from station: ENE 31 mi
Updated: Apr 25 2019 3:54 pm
Overcast  
Overcast  
   Wind: Calm
Wind: Calm
Temperature: 57.2°F
Dew Point: 48.2°F
Humidity: 72%
Barometer: 29.87 inHg
Clouds: Overcast
Visibility: 10 mi
Cloud details: Overcast 2000 ft
KFIG 251954Z AUTO 00000KT 10SM OVC020 14/09 A2987 RMK AO2 SLP117 T01440089
KJST - Johnstown, Pennsylvania, USA
Distance from station: S 44 mi
Updated: Apr 25 2019 3:54 pm
Light Rain, Overcast  
Light Rain, Overcast  
   Wind: SSE 5.8 mph
Wind: SSE 5.8 mph
Temperature: 60.8°F
Dew Point: 53.6°F
Humidity: 77%
Barometer: 29.86 inHg
Clouds: Overcast
Visibility: 10 mi
Cloud details: Partly Cloudy 1800 ft,
Mostly Cloudy 7000 ft,
Overcast 9000 ft
KJST 251954Z AUTO 16005KT 10SM -RA SCT018 BKN070 OVC090 16/12 A2986 RMK AO2 RAB42 SLP108 P0000 T01610122
KPIT - Pittsburgh, Pennsylvania, USA
Distance from station: WSW 74 mi
Updated: Apr 25 2019 3:51 pm
Light Rain, Overcast  
Light Rain, Overcast  
   Wind: SE 5.8 mph
Wind: SE 5.8 mph
Temperature: 60.8°F
Dew Point: 57.2°F
Humidity: 88%
Barometer: 29.84 inHg
Clouds: Overcast
Visibility: 10 mi
Cloud details: Partly Cloudy 900 ft,
Mostly Cloudy 1400 ft,
Overcast 5500 ft
KPIT 251951Z 13005KT 10SM -RA SCT009 BKN014 OVC055 16/14 A2984 RMK AO2 RAB51 SLP109 P0000 T01560139
KLBE - Latrobe/Westmorl, Pennsylvania, USA
Distance from station: SSW 52 mi
Updated: Apr 25 2019 3:50 pm
Mostly Cloudy  
Mostly Cloudy  
   Wind: Calm
Wind: Calm
Temperature: 64.4°F
Dew Point: 60.8°F
Humidity: 88%
Barometer: 29.84 inHg
Clouds: Mostly Cloudy
Visibility: 10 mi
Cloud details: Few Clouds 3700 ft,
Partly Cloudy 5500 ft,
Mostly Cloudy 7500 ft
KLBE 251950Z 00000KT 10SM FEW037 SCT055 BKN075 18/16 A2984
KBTP - Butler Co., Pennsylvania, USA
Distance from station: WSW 52 mi
Updated: Apr 25 2019 3:56 pm
Overcast  
Overcast  
   Wind: South 4.6 mph
Wind: South 4.6 mph
Temperature: 60.8°F
Dew Point: 55.4°F
Humidity: 83%
Barometer: 29.84 inHg
Clouds: Overcast
Visibility: 10 mi
Cloud details: Overcast 1800 ft
KBTP 251956Z AUTO 19004KT 10SM OVC018 16/13 A2984 RMK AO2 SLP111 T01610133
KUCP - New Castle Muni, Pennsylvania, USA
Distance from station: W 75 mi
Updated: Apr 25 2019 3:56 pm
Light Rain, Mist, Overcast  
Light Rain, Mist, Overcast  
   Wind: SSE 3.5 mph
Wind: SSE 3.5 mph
Temperature: 57.2°F
Dew Point: 55.4°F
Humidity: 94%
Barometer: 29.84 inHg
Clouds: Overcast
Visibility: 3 mi
Cloud details: Overcast 1100 ft
KUCP 251956Z AUTO 15003KT 3SM -RA BR OVC011 14/13 A2984 RMK AO2 RAB25 SLP120 P0000 T01440133
KFKL - Franklin, Pennsylvania, USA
Distance from station: WNW 54 mi
Updated: Apr 25 2019 3:56 pm
Overcast  
Overcast  
   Wind: SSE 6.9 mph
Wind: SSE 6.9 mph
Temperature: 60.8°F
Dew Point: 51.8°F
Humidity: 72%
Barometer: 29.84 inHg
Clouds: Overcast
Visibility: 10 mi
Cloud details: Mostly Cloudy 2500 ft,
Overcast 4800 ft
KFKL 251956Z AUTO 16006KT 10SM BKN025 OVC048 16/11 A2984 RMK AO2 SLP109 T01610106
KAOO - Altoona, Pennsylvania, USA
Distance from station: SE 57 mi
Updated: Apr 25 2019 3:53 pm
Overcast  
Overcast  
   Wind: varies 6.9 mph
Wind: varies 6.9 mph
Temperature: 60.8°F
Dew Point: 46.4°F
Humidity: 59%
Barometer: 29.88 inHg
Clouds: Overcast
Visibility: 10 mi
Cloud details: Few Clouds 2100 ft,
Partly Cloudy 4200 ft,
Overcast 9500 ft
KAOO 251953Z AUTO VRB06KT 10SM FEW021 SCT042 OVC095 16/08 A2988 RMK AO2 RAB17E27 SLP117 P0000 T01560083
KUNV - State College, Pennsylvania, USA
Distance from station: E 61 mi
Updated: Apr 25 2019 3:53 pm
Overcast  
Overcast  
   Wind: Calm
Wind: Calm
Temperature: 62.6°F
Dew Point: 46.4°F
Humidity: 56%
Barometer: 29.88 inHg
Clouds: Overcast
Visibility: 10 mi
Cloud details: Partly Cloudy 3500 ft,
Overcast 7000 ft
KUNV 251953Z 00000KT 10SM SCT035 OVC070 17/08 A2988
KBFD - Bradford, Pennsylvania, USA
Distance from station: NNE 62 mi
Updated: Apr 25 2019 3:53 pm
Overcast  
Overcast  
   Wind: SE 4.6 mph
Wind: SE 4.6 mph
Temperature: 59°F
Dew Point: 37.4°F
Humidity: 45%
Barometer: 29.86 inHg
Clouds: Overcast
Visibility: 10 mi
Cloud details: Mostly Cloudy 2700 ft,
Overcast 3600 ft
KBFD 251953Z AUTO 14004KT 10SM BKN027 OVC036 15/03 A2986 RMK AO2 SLP115 T01500033

Script developed by  Saratoga-weather.org Adapted for the template by  Weerstation Leuven

Equipment we use:

Weather-station
Davis VP2

Weather-program
Cumulus

Weather-server
Dell Inspiron 3521

Provider
Host On A Rope

Davis VP2

Cumulus

Dell Inspiron 3521

Host On A Rope